createdAt,value
2022-09-16T00:00:27.877Z,5.53
2022-09-16T00:02:55.020Z,4.47
2022-09-16T00:05:21.823Z,6.72
2022-09-16T00:07:48.648Z,4.22
2022-09-16T00:10:15.452Z,4.20
2022-09-16T00:12:42.284Z,4.63
2022-09-16T00:15:10.149Z,4.95
2022-09-16T00:17:37.993Z,3.58
2022-09-16T00:20:06.079Z,3.95
2022-09-16T00:22:32.966Z,4.50
2022-09-16T00:24:59.800Z,4.32
2022-09-16T00:27:26.767Z,5.43
2022-09-16T00:29:53.804Z,8.93
2022-09-16T00:32:20.719Z,5.25
2022-09-16T00:34:47.550Z,8.90
2022-09-16T00:37:14.290Z,5.45
2022-09-16T00:39:41.113Z,7.30
2022-09-16T00:42:11.135Z,6.90
2022-09-16T00:44:58.043Z,7.80
2022-09-16T00:47:30.311Z,5.95
2022-09-16T00:49:59.534Z,7.57
2022-09-16T00:52:27.056Z,6.00
2022-09-16T00:54:53.781Z,8.82
2022-09-16T00:57:20.555Z,5.80
2022-09-16T00:59:49.275Z,7.45
2022-09-16T01:02:17.419Z,8.88
2022-09-16T01:04:52.733Z,5.78
2022-09-16T01:07:44.311Z,5.72
2022-09-16T01:10:12.772Z,7.80
2022-09-16T01:12:39.655Z,7.93
2022-09-16T01:15:06.768Z,5.70
2022-09-16T01:17:45.479Z,8.48
2022-09-16T01:20:39.311Z,6.50
2022-09-16T01:23:27.608Z,7.15
2022-09-16T01:26:03.320Z,5.05
2022-09-16T01:29:04.223Z,6.32
2022-09-16T01:31:43.169Z,7.70
2022-09-16T01:34:47.804Z,5.78
2022-09-16T01:37:36.862Z,4.93
2022-09-16T01:40:33.461Z,5.68
2022-09-16T01:43:25.776Z,6.07
2022-09-16T01:46:21.406Z,6.15
2022-09-16T01:49:00.805Z,6.68
2022-09-16T01:52:05.925Z,7.07
2022-09-16T01:54:41.558Z,8.32
2022-09-16T01:57:22.155Z,5.68
2022-09-16T01:59:50.562Z,8.18
2022-09-16T02:02:23.944Z,7.95
2022-09-16T02:04:54.661Z,8.75
2022-09-16T02:07:23.531Z,9.40
2022-09-16T02:09:53.039Z,7.97
2022-09-16T02:12:22.476Z,7.63
2022-09-16T02:14:49.234Z,8.07
2022-09-16T02:17:17.942Z,7.10
2022-09-16T02:20:11.268Z,9.18
2022-09-16T02:22:43.734Z,7.53
2022-09-16T02:25:10.998Z,7.60
2022-09-16T02:27:38.255Z,14.38
2022-09-16T02:30:10.497Z,9.05
2022-09-16T02:32:42.366Z,7.13
2022-09-16T02:35:10.268Z,9.18
2022-09-16T02:37:47.329Z,10.57
2022-09-16T02:40:25.213Z,10.50
2022-09-16T02:42:52.280Z,9.52
2022-09-16T02:45:21.109Z,7.35
2022-09-16T02:48:04.471Z,8.80
2022-09-16T02:53:15.004Z,8.30
2022-09-16T02:55:47.593Z,9.20
2022-09-16T02:58:14.314Z,7.32
2022-09-16T03:00:44.777Z,8.02
2022-09-16T03:03:11.516Z,7.53
2022-09-16T03:05:39.871Z,11.45
2022-09-16T03:08:07.316Z,7.45
2022-09-16T03:10:39.570Z,8.00
2022-09-16T03:13:12.401Z,8.33
2022-09-16T03:15:59.373Z,10.57
2022-09-16T03:18:26.118Z,10.77
2022-09-16T03:21:10.785Z,8.27
2022-09-16T03:23:53.197Z,9.07
2022-09-16T03:26:38.858Z,12.80
2022-09-16T03:29:45.788Z,9.13
2022-09-16T03:32:18.419Z,11.23
2022-09-16T03:34:46.179Z,11.85
2022-09-16T03:37:15.233Z,10.15
2022-09-16T03:39:50.843Z,12.90
2022-09-16T03:42:17.651Z,10.90
2022-09-16T03:44:44.399Z,10.13
2022-09-16T03:47:11.496Z,9.40
2022-09-16T03:49:52.465Z,11.00
2022-09-16T03:52:28.275Z,10.68
2022-09-16T03:55:11.266Z,12.20
2022-09-16T03:57:50.186Z,11.23
2022-09-16T04:00:34.667Z,10.38
2022-09-16T04:03:16.212Z,9.52
2022-09-16T04:06:06.878Z,10.98
2022-09-16T04:08:48.983Z,9.95
2022-09-16T04:11:25.083Z,10.20
2022-09-16T04:14:02.487Z,10.68
2022-09-16T04:16:37.408Z,17.77
2022-09-16T04:19:19.323Z,10.93
2022-09-16T04:22:05.129Z,14.02
2022-09-16T04:24:44.225Z,11.75
2022-09-16T04:27:28.243Z,12.27
2022-09-16T04:30:06.349Z,16.08
2022-09-16T04:32:44.930Z,10.95
2022-09-16T04:35:14.905Z,13.52
2022-09-16T04:37:41.662Z,9.15
2022-09-16T04:40:11.689Z,11.43
2022-09-16T04:42:38.480Z,12.75
2022-09-16T04:45:05.973Z,11.23
2022-09-16T04:47:33.190Z,11.35
2022-09-16T04:49:59.934Z,12.50
2022-09-16T04:52:27.069Z,10.43
2022-09-16T04:54:53.887Z,11.57
2022-09-16T04:57:20.692Z,10.95
2022-09-16T04:59:47.427Z,10.90
2022-09-16T05:02:14.337Z,9.25
2022-09-16T05:04:41.213Z,10.40
2022-09-16T05:07:09.175Z,11.55
2022-09-16T05:09:37.637Z,13.77
2022-09-16T05:12:04.596Z,11.45
2022-09-16T05:14:31.488Z,12.02
2022-09-16T05:16:58.307Z,9.65
2022-09-16T05:19:25.203Z,11.60
2022-09-16T05:21:52.005Z,10.50
2022-09-16T05:24:18.757Z,9.15
2022-09-16T05:26:45.506Z,8.93
2022-09-16T05:29:15.649Z,8.15
2022-09-16T05:31:45.207Z,10.35
2022-09-16T05:34:19.838Z,6.72
2022-09-16T05:36:48.009Z,6.55
2022-09-16T05:39:26.227Z,10.15
2022-09-16T05:41:57.279Z,7.20
2022-09-16T05:44:24.643Z,8.38
2022-09-16T05:46:51.752Z,7.18
2022-09-16T05:49:21.009Z,7.50
2022-09-16T05:51:51.087Z,6.95
2022-09-16T05:54:20.840Z,5.95
2022-09-16T05:56:47.758Z,6.68
2022-09-16T05:59:14.851Z,9.18
2022-09-16T06:01:41.734Z,10.52
2022-09-16T06:04:11.015Z,10.20
2022-09-16T06:06:39.330Z,8.52
2022-09-16T06:09:17.140Z,11.57
2022-09-16T06:11:45.992Z,6.43
2022-09-16T06:14:13.286Z,8.70
2022-09-16T06:16:40.255Z,7.85
2022-09-16T06:19:10.601Z,5.90
2022-09-16T06:21:39.313Z,5.18
2022-09-16T06:24:09.300Z,7.90
2022-09-16T06:26:37.591Z,7.45
2022-09-16T06:29:05.772Z,6.80
2022-09-16T06:31:32.706Z,9.15
2022-09-16T06:33:59.833Z,7.55
2022-09-16T06:36:40.337Z,6.28
2022-09-16T06:39:11.864Z,6.40
2022-09-16T06:41:39.678Z,7.32
2022-09-16T06:44:06.528Z,5.05
2022-09-16T06:46:33.579Z,5.07
2022-09-16T06:49:04.509Z,11.43
2022-09-16T06:51:32.950Z,5.28
2022-09-16T06:54:01.751Z,5.78
2022-09-16T06:56:30.879Z,3.78
2022-09-16T06:59:00.902Z,5.82
2022-09-16T07:01:29.632Z,4.57
2022-09-16T07:03:57.750Z,5.95
2022-09-16T07:06:44.927Z,5.65
2022-09-16T07:09:12.519Z,8.10
2022-09-16T07:11:40.787Z,4.63
2022-09-16T07:14:09.435Z,6.28
2022-09-16T07:16:39.508Z,3.75
2022-09-16T07:19:06.402Z,5.28
2022-09-16T07:21:33.205Z,4.80
2022-09-16T07:24:01.277Z,4.82
2022-09-16T07:26:30.237Z,5.38
2022-09-16T07:28:59.694Z,4.93
2022-09-16T07:31:28.413Z,4.03
2022-09-16T07:34:01.292Z,4.28
2022-09-16T07:36:33.724Z,3.90
2022-09-16T07:39:00.692Z,3.58
2022-09-16T07:41:35.439Z,7.35
2022-09-16T07:44:02.786Z,4.22
2022-09-16T07:46:31.004Z,4.05
2022-09-16T07:48:58.562Z,4.53
2022-09-16T07:51:25.751Z,5.50
2022-09-16T07:53:58.602Z,3.10
2022-09-16T07:56:26.886Z,7.03
2022-09-16T07:58:54.673Z,3.97
2022-09-16T08:01:21.815Z,5.60
2022-09-16T08:03:49.089Z,4.57
2022-09-16T08:06:29.432Z,4.57
2022-09-16T08:09:36.860Z,7.95
2022-09-16T08:12:08.304Z,4.07
2022-09-16T08:14:56.826Z,5.65
2022-09-16T08:17:41.915Z,3.90
2022-09-16T08:20:28.951Z,5.78
2022-09-16T08:23:15.277Z,5.32
2022-09-16T08:25:59.380Z,5.72
2022-09-16T08:28:57.532Z,4.90
2022-09-16T08:31:39.244Z,4.70
2022-09-16T08:34:17.312Z,5.72
2022-09-16T08:36:59.115Z,7.93
2022-09-16T08:39:40.432Z,3.88
2022-09-16T08:42:24.863Z,4.90
2022-09-16T08:45:13.658Z,5.00
2022-09-16T08:48:08.786Z,4.45
2022-09-16T08:50:48.396Z,4.63
2022-09-16T08:53:53.083Z,5.95
2022-09-16T08:56:34.337Z,3.70
2022-09-16T08:59:14.785Z,5.10
2022-09-16T09:02:03.912Z,5.28
2022-09-16T09:04:45.369Z,5.65
2022-09-16T09:07:33.863Z,3.53
2022-09-16T09:10:35.287Z,4.47
2022-09-16T09:13:43.442Z,3.97
2022-09-16T09:16:35.493Z,3.75
2022-09-16T09:19:24.289Z,3.78
2022-09-16T09:22:12.380Z,4.43
2022-09-16T09:25:07.378Z,4.78
2022-09-16T09:28:30.195Z,4.32
2022-09-16T09:31:18.070Z,5.45
2022-09-16T09:34:34.169Z,5.63
2022-09-16T09:37:23.954Z,6.13
2022-09-16T09:40:31.193Z,6.80
2022-09-16T09:43:44.870Z,4.50
2022-09-16T09:46:29.175Z,5.60
2022-09-16T09:49:46.939Z,5.30
2022-09-16T09:52:44.342Z,7.55
2022-09-16T09:55:21.013Z,6.50
2022-09-16T09:58:01.783Z,5.30
2022-09-16T10:00:28.817Z,5.70
2022-09-16T10:03:06.690Z,6.43
2022-09-16T10:05:33.913Z,5.65
2022-09-16T10:08:23.966Z,6.97
2022-09-16T10:10:59.619Z,8.40
2022-09-16T10:13:27.301Z,7.25
2022-09-16T10:15:55.964Z,8.02
2022-09-16T10:18:27.087Z,8.02
2022-09-16T10:21:14.810Z,8.95
2022-09-16T10:23:41.619Z,6.90
2022-09-16T10:26:21.726Z,6.55
2022-09-16T10:29:01.733Z,7.53
2022-09-16T10:31:40.555Z,9.80
2022-09-16T10:34:33.921Z,7.95
2022-09-16T10:39:30.549Z,9.00
2022-09-16T10:41:57.363Z,8.32
2022-09-16T10:44:25.937Z,8.20
2022-09-16T10:47:03.028Z,9.70
2022-09-16T10:49:47.798Z,9.35
2022-09-16T10:52:31.193Z,8.57
2022-09-16T10:54:58.168Z,8.98
2022-09-16T10:57:30.441Z,7.15
2022-09-16T11:00:18.417Z,10.07
2022-09-16T11:03:24.883Z,9.20
2022-09-16T11:05:51.631Z,7.95
2022-09-16T11:08:30.679Z,6.78
2022-09-16T11:11:11.095Z,8.05
2022-09-16T11:13:44.756Z,6.82
2022-09-16T11:16:48.325Z,6.22
2022-09-16T11:19:36.522Z,10.68
2022-09-16T11:22:10.688Z,7.75
2022-09-16T11:24:58.908Z,6.43
2022-09-16T11:27:56.909Z,8.82
2022-09-16T11:30:23.743Z,8.15
2022-09-16T11:33:03.326Z,9.32
2022-09-16T11:36:07.255Z,7.10
2022-09-16T11:41:20.611Z,5.50
2022-09-16T11:44:09.058Z,6.85
2022-09-16T11:47:17.453Z,7.85
2022-09-16T11:50:16.045Z,5.88
2022-09-16T11:52:47.786Z,10.43
2022-09-16T11:55:18.394Z,8.27
2022-09-16T11:57:48.835Z,8.32
2022-09-16T12:00:17.345Z,7.57
2022-09-16T12:02:59.517Z,5.25
2022-09-16T12:05:36.714Z,5.90
2022-09-16T12:08:22.987Z,5.80
2022-09-16T12:10:57.231Z,11.38
2022-09-16T12:13:28.518Z,6.60
2022-09-16T12:15:59.342Z,5.15
2022-09-16T12:18:42.966Z,7.05
2022-09-16T12:21:33.713Z,7.25
2022-09-16T12:24:06.531Z,6.00
2022-09-16T12:26:34.909Z,8.70
2022-09-16T12:29:28.430Z,4.50
2022-09-16T12:32:06.464Z,5.03
2022-09-16T12:34:53.377Z,5.45
2022-09-16T12:37:34.202Z,5.30
2022-09-16T12:40:01.835Z,4.85
2022-09-16T12:42:37.583Z,4.72
2022-09-16T12:45:16.354Z,6.28
2022-09-16T12:48:11.216Z,5.82
2022-09-16T12:51:01.534Z,6.22
2022-09-16T12:53:53.098Z,6.60
2022-09-16T12:56:28.921Z,4.43
2022-09-16T12:59:20.614Z,6.32
2022-09-16T13:01:50.800Z,6.43
2022-09-16T13:04:27.752Z,4.63
2022-09-16T13:06:58.272Z,4.75
2022-09-16T13:09:36.301Z,8.25
2022-09-16T13:12:40.873Z,5.15
2022-09-16T13:15:08.311Z,7.68
2022-09-16T13:17:37.101Z,6.00
2022-09-16T13:20:13.318Z,6.03
2022-09-16T13:22:58.791Z,6.28
2022-09-16T13:25:28.632Z,5.35
2022-09-16T13:28:22.526Z,4.95
2022-09-16T13:30:49.322Z,9.55
2022-09-16T13:33:20.828Z,5.00
2022-09-16T13:35:49.872Z,3.90
2022-09-16T13:38:19.786Z,5.43
2022-09-16T13:40:57.518Z,4.88
2022-09-16T13:43:34.745Z,5.40
2022-09-16T13:46:03.744Z,6.10
2022-09-16T13:48:33.259Z,4.50
2022-09-16T13:51:00.453Z,7.32
2022-09-16T13:53:45.105Z,4.80
2022-09-16T13:56:24.135Z,5.78
2022-09-16T13:59:01.544Z,4.63
2022-09-16T14:01:56.001Z,5.82
2022-09-16T14:05:13.766Z,6.57
2022-09-16T14:07:46.725Z,4.90
2022-09-16T14:13:11.173Z,5.72
2022-09-16T14:16:00.045Z,6.00
2022-09-16T14:18:29.865Z,7.28
2022-09-16T14:20:56.622Z,4.97
2022-09-16T14:23:24.442Z,5.05
2022-09-16T14:25:52.306Z,5.90
2022-09-16T14:28:26.826Z,5.32
2022-09-16T14:30:58.270Z,6.60
2022-09-16T14:33:36.100Z,5.82
2022-09-16T14:36:14.861Z,5.50
2022-09-16T14:38:46.399Z,5.72
2022-09-16T14:41:27.028Z,6.32
2022-09-16T14:43:53.834Z,5.53
2022-09-16T14:46:20.663Z,4.30
2022-09-16T14:48:47.470Z,5.63
2022-09-16T14:51:23.392Z,4.65
2022-09-16T14:54:15.493Z,9.25
2022-09-16T14:56:42.459Z,5.28
2022-09-16T14:59:12.873Z,5.93
2022-09-16T15:01:39.702Z,4.80
2022-09-16T15:04:16.332Z,7.07
2022-09-16T15:06:48.396Z,4.95
2022-09-16T15:09:43.080Z,6.20
2022-09-16T15:12:29.527Z,6.22
2022-09-16T15:14:56.824Z,5.68
2022-09-16T15:17:26.039Z,5.97
2022-09-16T15:19:56.854Z,7.60
2022-09-16T15:22:23.753Z,4.72
2022-09-16T15:24:53.096Z,5.07
2022-09-16T15:27:28.927Z,4.47
2022-09-16T15:30:00.006Z,5.93
2022-09-16T15:32:31.952Z,4.20
2022-09-16T15:35:20.562Z,5.23
2022-09-16T15:37:48.468Z,5.07
2022-09-16T15:40:31.854Z,6.32
2022-09-16T15:43:10.514Z,4.82
2022-09-16T15:45:39.137Z,9.05
2022-09-16T15:48:25.808Z,8.30
2022-09-16T15:51:00.069Z,5.03
2022-09-16T15:53:29.975Z,4.78
2022-09-16T15:56:04.808Z,5.68
2022-09-16T15:58:44.573Z,5.43
2022-09-16T16:01:21.947Z,6.47
2022-09-16T16:03:54.178Z,4.68
2022-09-16T16:06:22.094Z,4.60
2022-09-16T16:08:52.621Z,4.40
2022-09-16T16:11:20.751Z,5.47
2022-09-16T16:13:47.807Z,6.18
2022-09-16T16:16:15.272Z,5.50
2022-09-16T16:18:43.010Z,5.13
2022-09-16T16:21:14.305Z,6.03
2022-09-16T16:23:43.968Z,5.97
2022-09-16T16:26:11.236Z,5.60
2022-09-16T16:28:38.709Z,6.05
2022-09-16T16:31:16.062Z,7.00
2022-09-16T16:33:44.989Z,5.57
2022-09-16T16:36:15.825Z,6.75
2022-09-16T16:38:42.775Z,7.68
2022-09-16T16:41:10.719Z,6.72
2022-09-16T16:43:38.715Z,5.82
2022-09-16T16:46:05.694Z,7.53
2022-09-16T16:48:32.538Z,8.32
2022-09-16T16:51:01.372Z,9.07
2022-09-16T16:53:28.814Z,8.48
2022-09-16T16:56:02.185Z,8.40
2022-09-16T16:58:35.571Z,9.30
2022-09-16T17:01:13.331Z,8.88
2022-09-16T17:03:40.736Z,10.48
2022-09-16T17:06:07.776Z,7.68
2022-09-16T17:08:35.372Z,7.00
2022-09-16T17:11:10.311Z,7.53
2022-09-16T17:13:44.521Z,7.50
2022-09-16T17:16:12.742Z,7.55
2022-09-16T17:18:40.335Z,8.95
2022-09-16T17:21:15.600Z,9.10
2022-09-16T17:23:42.669Z,7.65
2022-09-16T17:26:09.946Z,8.43
2022-09-16T17:28:39.485Z,8.15
2022-09-16T17:31:20.635Z,8.85
2022-09-16T17:34:03.620Z,6.75
2022-09-16T17:36:47.445Z,6.63
2022-09-16T17:39:33.327Z,5.70
2022-09-16T17:42:15.644Z,8.60
2022-09-16T17:44:54.509Z,4.80
2022-09-16T17:47:39.438Z,6.55
2022-09-16T17:50:23.204Z,6.32
2022-09-16T17:53:02.845Z,5.18
2022-09-16T17:55:41.769Z,5.97
2022-09-16T17:58:23.375Z,5.22
2022-09-16T18:01:06.837Z,4.57
2022-09-16T18:03:53.515Z,6.00
2022-09-16T18:06:52.114Z,4.60
2022-09-16T18:09:38.948Z,5.10
2022-09-16T18:12:11.694Z,8.40
2022-09-16T18:14:51.011Z,4.47
2022-09-16T18:17:32.059Z,3.90
2022-09-16T18:20:15.545Z,6.00
2022-09-16T18:22:55.733Z,5.35
2022-09-16T18:25:44.730Z,6.45
2022-09-16T18:28:20.724Z,6.85
2022-09-16T18:31:18.373Z,4.22
2022-09-16T18:34:03.479Z,5.45
2022-09-16T18:36:46.272Z,5.88
2022-09-16T18:39:25.726Z,5.90
2022-09-16T18:42:06.647Z,4.03
2022-09-16T18:44:43.628Z,6.57
2022-09-16T18:47:29.114Z,6.47
2022-09-16T18:50:12.211Z,6.68
2022-09-16T18:52:52.498Z,6.22
2022-09-16T18:55:24.102Z,4.82
2022-09-16T18:58:03.055Z,6.00
2022-09-16T19:00:41.151Z,7.68
2022-09-16T19:03:15.958Z,15.77
2022-09-16T19:05:57.506Z,7.40
2022-09-16T19:08:47.768Z,5.75
2022-09-16T19:11:26.970Z,5.80
2022-09-16T19:14:05.660Z,6.68
2022-09-16T19:16:48.469Z,6.25
2022-09-16T19:19:29.043Z,7.82
2022-09-16T19:22:13.518Z,7.38
2022-09-16T19:24:59.902Z,6.05
2022-09-16T19:27:40.666Z,5.38
2022-09-16T19:30:20.579Z,6.22
2022-09-16T19:33:18.149Z,5.72
2022-09-16T19:35:55.287Z,13.77
2022-09-16T19:38:38.552Z,5.45
2022-09-16T19:41:16.600Z,4.95
2022-09-16T19:44:05.393Z,6.43
2022-09-16T19:46:47.159Z,6.07
2022-09-16T19:49:30.975Z,6.28
2022-09-16T19:52:10.754Z,6.53
2022-09-16T19:54:50.911Z,6.50
2022-09-16T19:57:34.531Z,5.70
2022-09-16T20:00:41.339Z,5.13
2022-09-16T20:03:24.976Z,6.85
2022-09-16T20:06:27.956Z,5.10
2022-09-16T20:09:20.035Z,5.37
2022-09-16T20:11:56.703Z,7.20
2022-09-16T20:14:42.720Z,10.95
2022-09-16T20:17:27.567Z,5.45
2022-09-16T20:20:06.553Z,7.55
2022-09-16T20:22:45.565Z,5.55
2022-09-16T20:25:26.211Z,6.72
2022-09-16T20:28:09.825Z,6.70
2022-09-16T20:30:55.853Z,6.63
2022-09-16T20:33:33.372Z,5.55
2022-09-16T20:36:19.577Z,5.95
2022-09-16T20:39:03.720Z,4.63
2022-09-16T20:41:42.858Z,6.88
2022-09-16T20:44:26.437Z,8.35
2022-09-16T20:47:10.141Z,4.93
2022-09-16T20:49:46.666Z,6.07
2022-09-16T20:52:23.745Z,5.22
2022-09-16T20:55:09.452Z,6.63
2022-09-16T20:57:48.897Z,9.98
2022-09-16T21:00:34.722Z,4.47
2022-09-16T21:03:16.694Z,5.55
2022-09-16T21:05:57.568Z,5.75
2022-09-16T21:08:39.105Z,7.07
2022-09-16T21:11:30.583Z,12.55
2022-09-16T21:14:15.618Z,9.50
2022-09-16T21:16:57.488Z,8.32
2022-09-16T21:19:36.712Z,7.20
2022-09-16T21:22:20.955Z,5.97
2022-09-16T21:24:56.796Z,6.72
2022-09-16T21:27:32.543Z,5.05
2022-09-16T21:30:16.731Z,5.40
2022-09-16T21:32:58.711Z,6.22
